Lewistown Municipal Airport
KLWT : now visible

Airfield :











YOU CAN JOIN US ON...

 
LOGIN :

Register | Disclaimer

   EN    FR    IT 

 









Legend :    VFR   Marginal VFR   IFR   Intensive IFR   Very Intensive IFR
Visi :
Ceiling :
>= 8 km
>= 3000ft
5 to 8 km
1000 to 3000 ft
1500m to 5 km
500 to 1000 ft
800 to 1500m
200 to 500 ft
< 800m
< 200 ft
Symbols :   Thunderstorms  Fog  Heavy snow  Heavy precipitations  Wind > 20 kt







- Airport Elevation : 4170 ft
- IATA code : LWT


KLWT - Lewistown Municipal

CURRENT METAR :
  • 190554Z AUTO 10SM CLR 13/04 A2991 RMK AO2 SLP105 T01330039 10217 20133 53008

EXPIRED METARs :
  • 190454Z AUTO 11005KT 10SM CLR 13/04 A2988 RMK AO2 SLP097 T01330044
  • 190354Z AUTO 11011KT 10SM CLR 14/04 A2988 RMK AO2 SLP098 T01390039

TAF KLWT
Valid from the 19 at 06:00 until the 20 at 06:00 UTC


190520Z 1906/2006 13009KT P6SM FEW050 SCT100
FM191000 VRB06KT P6SM SCT020 BKN090
FM192200 32009KT P6SM FEW040 BKN090
PROB30 2003/2006 4SM -RA BKN035
No reported NOTAMs for that airfield.



MET'MAP, your aeronautical weather chart ! - Copyright ORBIFLY December 2007 - Disclaimer

ORBIFLY MET'MAP TEAM :

Programming & Development : Alexandra Zaïnal
Concept & Development : Baudouin d'Aumeries
Co-Development & Prog : Marc-Olivier Méhu
Technical & hardware support : Manuel Goepfert

Contact : metmap@orbifly.com




SOURCES & CREDITS :

   NOAA       Earth
Advisory